Time;durP1;ratioP1;P1;durP2;ratioP2;P2;SDS_P1;SDS_P2;PMS_P1;PMS_P2;Temp;Humidity;BMP_temperature;BMP_pressure;BME280_temperature;BME280_humidity;BME280_pressure;Samples;Min_cycle;Max_cycle;Signal;HPM_P1;HPM_P2
2022/03/18 00:01:47;;;;;;;13.27;3.17;;;7.80;99.90;;;;;;4918632;29;20035;-49
2022/03/18 00:04:12;;;;;;;9.13;2.97;;;7.80;99.90;;;;;;4918330;29;20035;-44
2022/03/18 00:06:39;;;;;;;7.82;2.55;;;7.80;99.90;;;;;;4918721;29;20028;-50
2022/03/18 00:09:05;;;;;;;10.63;2.42;;;7.90;99.90;;;;;;4918265;29;20583;-46
2022/03/18 00:11:30;;;;;;;11.27;3.03;;;7.90;99.90;;;;;;4918148;29;20451;-47
2022/03/18 00:13:58;;;;;;;4.93;2.38;;;7.90;99.90;;;;;;4917270;29;20028;-49
2022/03/18 00:16:24;;;;;;;6.82;3.08;;;8.00;99.90;;;;;;4917785;29;20400;-42
2022/03/18 00:18:49;;;;;;;10.45;2.90;;;8.00;99.90;;;;;;4917164;29;20028;-46
2022/03/18 00:21:16;;;;;;;8.63;2.60;;;7.90;99.90;;;;;;4917918;29;20035;-46
2022/03/18 00:23:41;;;;;;;8.25;2.78;;;7.90;99.90;;;;;;4918212;29;20044;-47
2022/03/18 00:26:07;;;;;;;13.70;4.18;;;7.90;99.90;;;;;;4917722;29;20072;-51
2022/03/18 00:28:32;;;;;;;16.85;3.60;;;7.90;99.90;;;;;;4916973;29;20028;-51
2022/03/18 00:30:58;;;;;;;10.05;3.17;;;7.90;99.90;;;;;;4917355;29;20111;-45
2022/03/18 00:33:24;;;;;;;12.88;3.40;;;8.00;99.90;;;;;;4917643;29;20028;-44
2022/03/18 00:35:49;;;;;;;7.70;2.88;;;8.00;99.90;;;;;;4917503;29;20504;-47
2022/03/18 00:38:15;;;;;;;7.47;3.10;;;7.90;99.90;;;;;;4917319;29;20039;-42
2022/03/18 00:40:41;;;;;;;16.63;3.67;;;7.90;99.90;;;;;;4917303;29;20404;-49
2022/03/18 00:43:07;;;;;;;10.57;3.20;;;7.90;99.90;;;;;;4918450;29;20027;-45
2022/03/18 00:45:32;;;;;;;7.72;2.75;;;8.00;99.90;;;;;;4918016;29;20027;-46
2022/03/18 00:53:27;;;;;;;12.80;3.22;;;8.00;99.90;;;;;;4918038;29;20039;-46
2022/03/18 00:55:52;;;;;;;11.00;3.63;;;8.00;99.90;;;;;;4918178;29;20032;-49
2022/03/18 00:58:18;;;;;;;10.65;3.15;;;8.00;99.90;;;;;;4917072;29;20039;-48
2022/03/18 01:00:43;;;;;;;11.32;4.22;;;8.00;99.90;;;;;;4916582;29;20127;-43
2022/03/18 01:03:09;;;;;;;9.52;2.88;;;8.00;99.90;;;;;;4916734;29;20036;-48
2022/03/18 01:05:35;;;;;;;14.15;3.25;;;8.00;99.90;;;;;;4915301;29;20024;-45
2022/03/18 01:08:01;;;;;;;12.32;3.97;;;7.80;99.90;;;;;;4916504;29;20480;-46
2022/03/18 01:10:26;;;;;;;8.32;3.42;;;7.90;99.90;;;;;;4916550;29;20075;-52
2022/03/18 01:12:52;;;;;;;16.30;3.45;;;7.90;99.90;;;;;;4916142;29;20484;-46
2022/03/18 01:15:17;;;;;;;12.68;3.45;;;7.90;99.90;;;;;;4916406;29;20028;-46
2022/03/18 01:17:43;;;;;;;11.55;4.00;;;7.90;99.90;;;;;;4916179;29;20065;-45
2022/03/18 01:20:08;;;;;;;11.38;3.05;;;7.90;99.90;;;;;;4917252;29;20031;-45
2022/03/18 01:22:34;;;;;;;8.93;3.20;;;7.80;99.90;;;;;;4917241;29;20024;-46
2022/03/18 01:24:59;;;;;;;12.93;3.20;;;7.80;99.90;;;;;;4917260;29;20099;-49
2022/03/18 01:27:25;;;;;;;11.90;3.22;;;7.80;99.90;;;;;;4916756;29;20040;-43
2022/03/18 01:29:50;;;;;;;11.38;3.63;;;7.80;99.90;;;;;;4917521;29;20039;-48
2022/03/18 01:32:16;;;;;;;9.10;4.57;;;7.80;99.90;;;;;;4917580;29;20107;-49
2022/03/18 01:34:41;;;;;;;14.77;5.93;;;7.70;99.90;;;;;;4916152;29;20043;-50
2022/03/18 01:37:08;;;;;;;14.95;4.38;;;7.70;99.90;;;;;;4915956;29;20032;-45
2022/03/18 01:39:34;;;;;;;13.77;4.13;;;7.60;99.90;;;;;;4915829;29;20039;-45
2022/03/18 01:41:59;;;;;;;31.45;12.25;;;7.60;99.90;;;;;;4916014;29;20345;-48
2022/03/18 01:44:25;;;;;;;14.32;3.95;;;7.60;99.90;;;;;;4916138;29;20047;-48
2022/03/18 01:46:50;;;;;;;13.00;4.10;;;7.60;99.90;;;;;;4916350;29;20612;-49
2022/03/18 01:49:16;;;;;;;13.10;3.03;;;7.60;99.90;;;;;;4914307;29;20032;-41
2022/03/18 01:51:41;;;;;;;14.88;4.18;;;7.60;99.90;;;;;;4918528;29;20035;-46
2022/03/18 01:56:53;;;;;;;12.55;5.53;;;7.50;99.90;;;;;;4919632;29;20043;-44
2022/03/18 01:59:18;;;;;;;14.48;5.47;;;7.40;99.90;;;;;;4919289;29;20031;-42
2022/03/18 02:01:44;;;;;;;8.40;3.47;;;7.50;99.90;;;;;;4919436;29;20032;-48
2022/03/18 02:04:10;;;;;;;7.70;4.68;;;7.40;99.90;;;;;;4917815;29;20027;-49
2022/03/18 02:09:11;;;;;;;8.98;3.40;;;7.30;99.90;;;;;;5069048;23;20588;-42
2022/03/18 02:11:38;;;;;;;6.78;3.22;;;7.30;99.90;;;;;;4952349;29;20047;-43
2022/03/18 02:14:03;;;;;;;12.65;3.47;;;7.30;99.90;;;;;;4919458;28;20070;-46
2022/03/18 02:16:29;;;;;;;12.55;3.08;;;7.40;99.90;;;;;;4918185;29;20500;-44
2022/03/18 02:18:54;;;;;;;13.18;4.80;;;7.40;99.90;;;;;;4903471;29;20100;-46
2022/03/18 02:21:20;;;;;;;9.98;3.35;;;7.30;99.90;;;;;;4921295;23;20562;-45
2022/03/18 02:23:46;;;;;;;6.45;3.55;;;7.30;99.90;;;;;;4935951;29;20027;-41
2022/03/18 02:26:15;;;;;;;15.00;4.15;;;7.30;99.90;;;;;;4929998;29;20152;-44
2022/03/18 02:28:41;;;;;;;14.77;4.10;;;7.30;99.90;;;;;;4917965;29;20159;-40
2022/03/18 02:31:07;;;;;;;14.43;4.50;;;7.20;99.90;;;;;;4914300;29;20027;-45
2022/03/18 02:33:32;;;;;;;13.93;4.63;;;7.20;99.90;;;;;;4899335;29;20480;-44
2022/03/18 02:35:58;;;;;;;11.95;3.42;;;7.10;99.90;;;;;;4899251;29;20500;-43
2022/03/18 02:38:23;;;;;;;9.13;4.13;;;7.10;99.90;;;;;;4898665;29;20115;-45
2022/03/18 02:40:49;;;;;;;7.15;3.50;;;7.10;99.90;;;;;;4899328;29;20024;-45
2022/03/18 02:43:14;;;;;;;7.68;3.28;;;7.10;99.90;;;;;;4899183;29;20024;-44
2022/03/18 02:45:40;;;;;;;10.32;3.60;;;7.10;99.90;;;;;;4899146;29;20448;-43
2022/03/18 02:48:06;;;;;;;15.95;4.80;;;7.20;99.90;;;;;;4899032;29;20033;-43
2022/03/18 02:50:32;;;;;;;14.90;4.60;;;7.20;99.90;;;;;;4899074;29;20028;-47
2022/03/18 02:52:59;;;;;;;16.60;5.93;;;7.10;99.90;;;;;;4899301;29;20068;-43
2022/03/18 02:55:24;;;;;;;10.75;4.03;;;7.10;99.90;;;;;;4901451;29;20052;-41
2022/03/18 02:57:50;;;;;;;10.95;3.70;;;7.10;99.90;;;;;;4903383;29;20043;-37
2022/03/18 03:00:17;;;;;;;13.65;4.30;;;7.00;99.90;;;;;;4902058;29;20025;-42
2022/03/18 03:02:42;;;;;;;10.57;4.40;;;7.00;99.90;;;;;;4901746;29;20035;-42
2022/03/18 03:08:01;;;;;;;20.20;4.28;;;7.00;99.90;;;;;;4898533;29;20043;-43
2022/03/18 03:10:29;;;;;;;13.80;4.15;;;6.90;99.90;;;;;;4899180;29;20029;-40
2022/03/18 03:12:57;;;;;;;15.32;4.05;;;7.00;99.90;;;;;;4898225;29;20025;-37
2022/03/18 03:15:23;;;;;;;9.98;4.03;;;6.90;99.90;;;;;;4898754;29;20029;-39
2022/03/18 03:17:48;;;;;;;12.82;4.93;;;6.90;99.90;;;;;;4898143;29;20128;-42
2022/03/18 03:20:15;;;;;;;9.77;3.90;;;6.90;99.90;;;;;;4898818;29;20168;-43
2022/03/18 03:22:40;;;;;;;15.27;4.45;;;6.90;99.90;;;;;;4898111;29;20029;-40
2022/03/18 03:25:06;;;;;;;13.23;4.13;;;6.80;99.90;;;;;;4898957;29;20480;-36
2022/03/18 03:27:32;;;;;;;12.15;5.25;;;6.80;99.90;;;;;;4912815;29;20038;-44
2022/03/18 03:30:05;;;;;;;15.85;4.93;;;6.90;99.90;;;;;;4899347;29;20491;-43
2022/03/18 03:32:30;;;;;;;12.43;4.38;;;6.80;99.90;;;;;;4898691;29;20084;-42
2022/03/18 03:34:57;;;;;;;9.82;4.80;;;6.80;99.90;;;;;;4898295;29;20036;-42
2022/03/18 03:37:26;;;;;;;9.73;4.10;;;6.70;99.90;;;;;;4898281;29;20076;-49
2022/03/18 03:39:52;;;;;;;10.57;4.20;;;6.80;99.90;;;;;;4898503;29;20103;-44
2022/03/18 03:42:18;;;;;;;23.38;6.15;;;6.80;99.90;;;;;;4899034;29;20488;-50
2022/03/18 03:44:45;;;;;;;23.63;7.55;;;6.90;99.90;;;;;;4898680;29;20029;-47
2022/03/18 03:47:12;;;;;;;16.25;4.80;;;6.80;99.90;;;;;;4898571;29;20060;-45
2022/03/18 03:49:37;;;;;;;13.05;4.88;;;6.80;99.90;;;;;;4898757;29;20100;-45
2022/03/18 03:52:03;;;;;;;17.60;5.10;;;6.80;99.90;;;;;;4898785;29;20036;-43
2022/03/18 03:54:28;;;;;;;13.68;4.07;;;6.70;99.90;;;;;;4898402;29;20036;-48
2022/03/18 03:56:55;;;;;;;13.32;4.38;;;6.80;99.90;;;;;;4898403;29;20043;-44
2022/03/18 03:59:21;;;;;;;14.07;4.93;;;6.70;99.90;;;;;;4898567;29;20020;-47
2022/03/18 04:01:47;;;;;;;19.10;5.22;;;6.70;99.90;;;;;;4898684;29;20028;-51
2022/03/18 04:04:12;;;;;;;15.23;5.30;;;6.60;99.90;;;;;;4898417;29;20029;-42
2022/03/18 04:06:38;;;;;;;13.43;4.90;;;6.70;99.90;;;;;;4898267;29;20408;-45
2022/03/18 04:09:04;;;;;;;13.70;4.47;;;6.60;99.90;;;;;;4897476;29;20458;-49
2022/03/18 04:11:30;;;;;;;8.98;4.85;;;6.60;99.90;;;;;;4898384;29;20035;-49
2022/03/18 04:13:55;;;;;;;9.32;4.75;;;6.70;99.90;;;;;;4898206;29;20037;-50
2022/03/18 04:16:21;;;;;;;12.95;4.90;;;6.60;99.90;;;;;;4898433;29;20441;-46
2022/03/18 04:18:47;;;;;;;9.23;4.82;;;6.60;99.90;;;;;;4898037;29;20029;-49
2022/03/18 04:21:14;;;;;;;17.58;4.53;;;6.60;99.90;;;;;;4898338;29;20036;-46
2022/03/18 04:23:40;;;;;;;20.25;5.47;;;6.60;99.90;;;;;;4898385;29;20032;-43
2022/03/18 04:26:05;;;;;;;14.07;5.70;;;6.50;99.90;;;;;;4898181;29;20032;-45
2022/03/18 04:28:31;;;;;;;14.38;5.55;;;6.50;99.90;;;;;;4896955;29;20063;-47
2022/03/18 04:30:56;;;;;;;10.57;5.10;;;6.50;99.90;;;;;;4898041;29;20025;-51
2022/03/18 04:33:22;;;;;;;8.43;4.40;;;6.40;99.90;;;;;;4898017;29;20416;-48
2022/03/18 04:35:47;;;;;;;26.10;5.88;;;6.40;99.90;;;;;;4898120;29;20040;-42
2022/03/18 04:38:13;;;;;;;13.70;5.53;;;6.40;99.90;;;;;;4897773;29;20032;-46
2022/03/18 04:40:38;;;;;;;13.52;5.38;;;6.40;99.90;;;;;;4898390;29;20033;-47
2022/03/18 04:43:04;;;;;;;15.52;5.03;;;6.40;99.90;;;;;;4897891;29;20025;-46
2022/03/18 04:45:30;;;;;;;17.70;5.93;;;6.40;99.90;;;;;;4897736;29;20191;-45
2022/03/18 04:47:56;;;;;;;14.13;5.60;;;6.40;99.90;;;;;;4897610;29;20110;-47
2022/03/18 04:50:21;;;;;;;13.85;4.65;;;6.50;99.90;;;;;;4897950;29;20037;-51
2022/03/18 04:52:47;;;;;;;14.63;5.18;;;6.40;99.90;;;;;;4897367;29;20396;-42
2022/03/18 04:55:12;;;;;;;19.55;5.63;;;6.50;99.90;;;;;;4897785;29;20134;-48
2022/03/18 04:57:38;;;;;;;21.92;7.13;;;6.50;99.90;;;;;;4897552;29;20395;-46
2022/03/18 05:00:05;;;;;;;13.43;5.30;;;6.50;99.90;;;;;;4897660;29;20038;-47
2022/03/18 05:02:31;;;;;;;16.25;5.63;;;6.40;99.90;;;;;;4897475;29;20024;-45
2022/03/18 05:04:56;;;;;;;17.73;6.00;;;6.40;99.90;;;;;;4897661;29;20036;-45
2022/03/18 05:07:24;;;;;;;17.65;5.97;;;6.40;99.90;;;;;;4896680;29;20400;-50
2022/03/18 05:09:49;;;;;;;15.60;5.95;;;6.40;99.90;;;;;;4897374;29;20028;-48
2022/03/18 05:12:16;;;;;;;20.35;5.63;;;6.40;99.90;;;;;;4897172;29;20397;-48
2022/03/18 05:14:42;;;;;;;16.65;5.97;;;6.40;99.90;;;;;;4911823;29;20531;-47
2022/03/18 05:17:09;;;;;;;17.50;6.82;;;6.40;99.90;;;;;;4896982;29;20033;-45
2022/03/18 05:19:36;;;;;;;20.40;5.68;;;6.30;99.90;;;;;;4897105;29;20408;-47
2022/03/18 05:22:02;;;;;;;16.48;5.28;;;6.30;99.90;;;;;;4896936;29;20025;-48
2022/03/18 05:24:27;;;;;;;13.40;5.28;;;6.30;99.90;;;;;;4897484;29;20404;-46
2022/03/18 05:26:57;;;;;;;8.85;5.85;;;6.30;99.90;;;;;;4902759;29;20036;-46
2022/03/18 05:29:25;;;;;;;16.27;5.97;;;6.30;99.90;;;;;;4903733;29;20100;-45
2022/03/18 05:31:51;;;;;;;13.40;6.00;;;6.30;99.90;;;;;;4903333;29;20633;-43
2022/03/18 05:34:16;;;;;;;14.63;6.25;;;6.20;99.90;;;;;;4903424;29;20033;-45
2022/03/18 05:36:42;;;;;;;20.13;5.75;;;6.20;99.90;;;;;;4903625;29;20041;-45
2022/03/18 05:39:08;;;;;;;10.27;6.82;;;6.20;99.90;;;;;;4903037;29;20024;-48
2022/03/18 05:41:34;;;;;;;12.27;5.85;;;6.20;99.90;;;;;;4903434;29;20021;-48
2022/03/18 05:44:00;;;;;;;10.95;6.13;;;6.20;99.90;;;;;;4903530;29;20032;-53
2022/03/18 05:46:25;;;;;;;12.07;6.47;;;6.20;99.90;;;;;;4903413;29;20088;-46
2022/03/18 05:48:51;;;;;;;21.80;6.85;;;6.20;99.90;;;;;;4903637;29;20073;-48
2022/03/18 05:51:17;;;;;;;15.40;6.10;;;6.10;99.90;;;;;;4903442;29;20028;-44
2022/03/18 05:53:42;;;;;;;17.25;6.93;;;6.10;99.90;;;;;;4903624;29;20036;-46
2022/03/18 05:58:53;;;;;;;16.65;7.18;;;6.00;99.90;;;;;;4903380;29;20044;-49
2022/03/18 06:01:18;;;;;;;13.45;8.43;;;6.00;99.90;;;;;;4903311;29;20107;-51
2022/03/18 06:03:44;;;;;;;18.60;7.13;;;6.00;99.90;;;;;;4903399;29;20052;-44
2022/03/18 06:06:09;;;;;;;15.13;6.13;;;6.10;99.90;;;;;;4903551;29;20064;-49
2022/03/18 06:14:03;;;;;;;14.68;6.68;;;6.00;99.90;;;;;;4904373;29;20055;-48
2022/03/18 06:16:29;;;;;;;15.32;5.80;;;6.00;99.90;;;;;;4903602;29;20491;-45
2022/03/18 06:18:55;;;;;;;22.50;6.38;;;6.00;99.90;;;;;;4903752;29;20032;-47
2022/03/18 06:21:21;;;;;;;21.13;7.38;;;6.00;99.90;;;;;;4903533;29;20047;-46
2022/03/18 06:23:46;;;;;;;11.75;6.65;;;6.10;99.90;;;;;;4903593;29;20064;-46
2022/03/18 06:26:12;;;;;;;19.10;7.20;;;6.10;99.90;;;;;;4903384;29;20404;-50
2022/03/18 06:28:37;;;;;;;20.02;7.47;;;6.10;99.90;;;;;;4902844;29;20040;-49
2022/03/18 06:31:03;;;;;;;15.93;7.15;;;6.10;99.90;;;;;;4903022;29;20033;-44
2022/03/18 06:33:30;;;;;;;19.45;6.63;;;6.10;99.90;;;;;;4903525;29;20029;-47
2022/03/18 06:35:56;;;;;;;18.27;6.28;;;6.10;99.90;;;;;;4902782;29;20396;-44
2022/03/18 06:38:21;;;;;;;16.98;7.25;;;6.00;99.90;;;;;;4900729;29;20029;-45
2022/03/18 06:40:47;;;;;;;15.00;6.70;;;6.00;99.90;;;;;;4914654;29;20029;-47
2022/03/18 06:43:12;;;;;;;22.13;7.72;;;6.10;99.90;;;;;;4900698;29;20024;-48
2022/03/18 06:45:38;;;;;;;17.45;7.20;;;6.10;99.90;;;;;;4900280;29;20503;-45
2022/03/18 06:48:04;;;;;;;17.00;6.78;;;6.10;99.90;;;;;;4900151;29;20056;-47
2022/03/18 06:50:29;;;;;;;30.45;8.73;;;6.10;99.90;;;;;;4900511;29;20029;-48
2022/03/18 06:52:55;;;;;;;18.13;6.78;;;6.20;99.90;;;;;;4900446;29;20025;-50
2022/03/18 06:55:20;;;;;;;18.52;6.55;;;6.20;99.90;;;;;;4900614;29;20039;-45
2022/03/18 06:57:46;;;;;;;17.05;6.78;;;6.20;99.90;;;;;;4899634;29;20028;-47
2022/03/18 07:00:12;;;;;;;19.77;7.65;;;6.30;99.90;;;;;;4900330;29;20075;-44
2022/03/18 07:02:37;;;;;;;15.77;6.13;;;6.30;99.90;;;;;;4899948;29;20040;-44
2022/03/18 07:05:03;;;;;;;22.10;7.75;;;6.30;99.90;;;;;;4914226;29;20029;-46
2022/03/18 07:07:29;;;;;;;16.08;6.80;;;6.30;99.90;;;;;;4898876;29;20325;-46
2022/03/18 07:09:54;;;;;;;11.13;5.93;;;6.40;99.90;;;;;;4899794;29;20043;-43
2022/03/18 07:12:20;;;;;;;16.70;6.72;;;6.40;99.90;;;;;;4899926;29;20029;-46
2022/03/18 07:14:46;;;;;;;18.33;6.40;;;6.40;99.90;;;;;;4900001;29;20036;-52
2022/03/18 07:19:55;;;;;;;15.98;6.03;;;6.60;99.90;;;;;;4899802;29;20112;-45
2022/03/18 07:22:23;;;;;;;20.00;7.43;;;6.70;99.90;;;;;;4899360;29;20056;-46
2022/03/18 07:24:49;;;;;;;20.10;7.15;;;6.70;99.90;;;;;;4899630;29;20025;-41
2022/03/18 07:27:16;;;;;;;18.02;6.53;;;6.70;99.90;;;;;;4899125;29;20029;-47
2022/03/18 07:29:42;;;;;;;11.05;6.32;;;6.80;99.90;;;;;;4899521;29;20037;-47
2022/03/18 07:32:08;;;;;;;17.40;6.07;;;6.70;99.90;;;;;;4899599;29;20024;-46
2022/03/18 07:34:33;;;;;;;15.35;7.18;;;6.70;99.90;;;;;;4899483;29;20080;-45
2022/03/18 07:36:59;;;;;;;16.10;6.43;;;6.80;99.90;;;;;;4898955;29;20029;-52
2022/03/18 07:39:24;;;;;;;15.25;7.22;;;6.90;99.90;;;;;;4899172;29;20096;-43
2022/03/18 07:41:50;;;;;;;15.35;6.18;;;6.90;99.90;;;;;;4899093;29;20180;-47
2022/03/18 07:44:15;;;;;;;16.55;7.22;;;7.00;99.90;;;;;;4899056;29;20068;-46
2022/03/18 07:46:41;;;;;;;15.85;6.32;;;7.10;99.90;;;;;;4898974;29;20024;-44
2022/03/18 07:49:06;;;;;;;13.02;7.22;;;7.00;99.90;;;;;;4898675;29;20033;-45
2022/03/18 07:51:32;;;;;;;12.27;6.25;;;7.10;99.90;;;;;;4899443;29;20545;-47
2022/03/18 07:53:57;;;;;;;16.58;6.53;;;7.00;99.90;;;;;;4899266;29;20033;-46
2022/03/18 07:56:23;;;;;;;14.98;6.90;;;6.90;99.90;;;;;;4898962;29;20052;-45
2022/03/18 07:58:49;;;;;;;21.83;7.82;;;7.00;99.90;;;;;;4898616;29;20121;-45
2022/03/18 08:01:15;;;;;;;17.70;7.05;;;7.10;99.90;;;;;;4898898;29;20163;-45
2022/03/18 08:03:41;;;;;;;23.48;7.25;;;7.10;99.90;;;;;;4898536;29;20425;-47
2022/03/18 08:06:06;;;;;;;25.80;7.30;;;7.10;99.90;;;;;;4898583;29;20084;-44
2022/03/18 08:08:32;;;;;;;17.55;6.97;;;7.10;99.90;;;;;;4897727;29;20028;-48
2022/03/18 08:10:58;;;;;;;18.30;6.82;;;7.20;99.90;;;;;;4898357;29;20111;-44
2022/03/18 08:13:24;;;;;;;16.13;6.18;;;7.20;99.90;;;;;;4898886;29;20111;-47
2022/03/18 08:15:51;;;;;;;18.77;7.75;;;7.30;99.90;;;;;;4898201;29;20107;-45
2022/03/18 08:18:18;;;;;;;11.32;6.72;;;7.30;99.90;;;;;;4898185;29;20071;-47
2022/03/18 08:20:44;;;;;;;11.02;7.03;;;7.30;99.90;;;;;;4898155;29;20496;-46
2022/03/18 08:23:12;;;;;;;13.77;6.90;;;7.40;99.90;;;;;;4925069;23;20055;-42
2022/03/18 08:25:38;;;;;;;23.63;6.80;;;7.50;99.90;;;;;;4916087;29;20480;-47
2022/03/18 08:28:05;;;;;;;18.17;7.72;;;7.40;99.90;;;;;;4915753;29;20042;-45
2022/03/18 08:30:31;;;;;;;14.73;6.47;;;7.50;99.90;;;;;;4915077;29;20118;-43
2022/03/18 08:32:56;;;;;;;21.80;7.55;;;7.50;99.90;;;;;;4916161;29;20051;-44
2022/03/18 08:35:22;;;;;;;21.95;7.20;;;7.60;99.90;;;;;;4916790;29;20032;-46
2022/03/18 08:37:56;;;;;;;11.93;6.50;;;7.60;99.90;;;;;;4914396;29;20111;-48
2022/03/18 08:40:29;;;;;;;18.80;8.25;;;7.60;99.90;;;;;;4915938;29;20024;-46
2022/03/18 08:42:56;;;;;;;17.52;7.10;;;7.50;99.90;;;;;;4914600;29;20120;-44
2022/03/18 08:45:22;;;;;;;21.23;8.07;;;7.60;99.90;;;;;;4916079;29;20055;-49
2022/03/18 08:47:48;;;;;;;16.95;6.10;;;7.80;99.90;;;;;;4915711;29;20020;-48
2022/03/18 08:50:14;;;;;;;13.02;6.57;;;7.90;99.90;;;;;;4916042;29;20086;-49
2022/03/18 08:52:40;;;;;;;15.35;5.95;;;7.90;99.90;;;;;;4915940;29;20036;-45
2022/03/18 08:55:07;;;;;;;10.13;5.78;;;7.90;99.90;;;;;;4916714;29;20028;-44
2022/03/18 08:57:36;;;;;;;14.10;7.03;;;8.10;99.90;;;;;;4914120;29;20032;-48
2022/03/18 09:00:05;;;;;;;14.48;6.55;;;8.20;99.90;;;;;;4915007;29;20020;-45
2022/03/18 09:02:30;;;;;;;13.85;6.07;;;8.40;99.90;;;;;;4915647;29;20471;-45
2022/03/18 09:04:56;;;;;;;20.45;6.85;;;8.40;99.90;;;;;;4915938;29;20118;-45
2022/03/18 09:07:21;;;;;;;10.90;5.40;;;8.40;99.90;;;;;;4915323;29;20486;-48
2022/03/18 09:09:47;;;;;;;14.82;6.53;;;8.50;99.90;;;;;;4915746;29;20052;-47
2022/03/18 09:12:15;;;;;;;15.60;7.60;;;8.80;99.90;;;;;;4914366;29;20111;-45
2022/03/18 09:14:41;;;;;;;16.02;5.13;;;9.20;99.90;;;;;;4914846;29;20385;-45
2022/03/18 09:17:06;;;;;;;15.20;6.57;;;9.40;99.90;;;;;;4915464;29;20035;-44
2022/03/18 09:19:37;;;;;;;10.88;6.05;;;9.60;99.90;;;;;;4915819;29;20056;-44
2022/03/18 09:22:09;;;;;;;22.35;8.18;;;9.70;99.90;;;;;;4915721;29;20452;-46
2022/03/18 09:24:36;;;;;;;9.48;4.97;;;10.10;99.40;;;;;;4915770;29;20369;-43
2022/03/18 09:27:02;;;;;;;23.40;6.28;;;9.70;99.40;;;;;;4915038;29;20032;-44
2022/03/18 09:29:28;;;;;;;24.20;5.80;;;9.90;99.90;;;;;;4915518;29;20616;-44
2022/03/18 09:31:54;;;;;;;14.85;6.18;;;10.20;99.60;;;;;;4913762;29;20381;-49
2022/03/18 09:34:24;;;;;;;9.77;5.25;;;10.20;99.00;;;;;;4915264;29;20056;-44
2022/03/18 09:36:58;;;;;;;16.63;6.55;;;10.20;98.70;;;;;;4915059;29;20024;-44
2022/03/18 09:39:25;;;;;;;12.93;5.50;;;10.00;99.10;;;;;;4915298;29;20032;-45
2022/03/18 09:41:51;;;;;;;16.60;6.75;;;10.00;98.80;;;;;;4913749;29;20029;-51
2022/03/18 09:44:17;;;;;;;16.00;7.40;;;9.60;99.40;;;;;;4915331;29;20456;-46
2022/03/18 09:46:47;;;;;;;16.40;6.63;;;9.60;99.90;;;;;;4914973;29;20025;-46
2022/03/18 09:49:13;;;;;;;10.95;5.45;;;9.70;99.90;;;;;;4915183;29;20161;-45
2022/03/18 09:51:42;;;;;;;10.93;5.50;;;9.60;99.70;;;;;;4915201;29;20100;-47
2022/03/18 09:54:09;;;;;;;13.65;5.85;;;9.70;99.60;;;;;;4915113;29;20488;-44
2022/03/18 09:56:34;;;;;;;19.23;6.45;;;9.70;99.30;;;;;;4915007;29;20532;-45
2022/03/18 09:59:01;;;;;;;14.25;6.40;;;9.60;99.50;;;;;;4914972;29;20059;-45
2022/03/18 10:01:26;;;;;;;12.05;6.07;;;9.40;99.90;;;;;;4915083;29;20392;-43
2022/03/18 10:03:52;;;;;;;11.10;6.45;;;9.50;99.90;;;;;;4913981;29;20031;-44
2022/03/18 10:06:27;;;;;;;13.02;5.95;;;9.50;99.90;;;;;;4915261;29;20107;-43
2022/03/18 10:08:53;;;;;;;11.90;6.30;;;9.40;99.80;;;;;;4914715;29;20040;-45
2022/03/18 10:11:26;;;;;;;14.23;6.05;;;9.50;99.90;;;;;;4915800;29;20039;-46
2022/03/18 10:14:07;;;;;;;11.82;6.68;;;9.50;99.90;;;;;;4918678;29;20032;-47
2022/03/18 10:16:44;;;;;;;12.45;6.88;;;9.30;99.90;;;;;;4918688;29;20030;-44
2022/03/18 10:19:17;;;;;;;9.50;5.50;;;9.70;99.90;;;;;;4918642;29;20035;-45
2022/03/18 10:21:59;;;;;;;22.30;8.48;;;9.40;99.90;;;;;;4918574;29;20032;-44
2022/03/18 10:24:27;;;;;;;12.30;6.90;;;9.20;99.90;;;;;;4918651;29;20100;-45
2022/03/18 10:27:11;;;;;;;11.85;6.10;;;9.20;99.90;;;;;;4918163;29;20031;-43
2022/03/18 10:29:43;;;;;;;13.25;6.65;;;9.00;99.90;;;;;;4918950;29;20024;-44
2022/03/18 10:32:09;;;;;;;9.98;5.57;;;9.10;99.90;;;;;;4918512;29;20051;-46
2022/03/18 10:37:21;;;;;;;11.93;5.57;;;9.40;99.90;;;;;;4918194;29;20510;-44
2022/03/18 10:39:48;;;;;;;16.05;6.47;;;9.30;99.40;;;;;;4917005;29;20168;-44
2022/03/18 10:42:19;;;;;;;12.02;5.53;;;9.30;99.10;;;;;;4918234;29;20111;-45
2022/03/18 10:44:59;;;;;;;14.40;5.63;;;9.30;99.00;;;;;;4916814;29;20031;-46
2022/03/18 10:47:39;;;;;;;10.95;5.30;;;9.60;99.50;;;;;;4917780;29;20028;-46
2022/03/18 10:50:13;;;;;;;5.85;4.30;;;9.50;98.30;;;;;;4916747;29;20400;-46
2022/03/18 10:52:48;;;;;;;11.13;5.07;;;9.50;97.60;;;;;;4918117;29;20040;-44
2022/03/18 10:55:38;;;;;;;10.43;5.97;;;9.70;97.40;;;;;;4917931;29;20028;-46
2022/03/18 10:58:15;;;;;;;12.93;5.03;;;10.00;97.00;;;;;;4912611;29;20584;-44
2022/03/18 11:00:43;;;;;;;14.00;4.90;;;10.10;95.80;;;;;;4917953;29;20417;-45
2022/03/18 11:03:09;;;;;;;10.75;4.53;;;10.00;96.30;;;;;;4917653;29;20459;-49
2022/03/18 11:05:37;;;;;;;13.60;5.18;;;10.10;96.40;;;;;;4917784;29;20032;-48
2022/03/18 11:08:04;;;;;;;8.88;4.72;;;10.20;96.00;;;;;;4917359;29;20025;-43
2022/03/18 11:13:15;;;;;;;7.30;4.40;;;10.00;95.20;;;;;;4917639;29;20039;-47
2022/03/18 11:15:43;;;;;;;10.63;4.95;;;10.10;96.30;;;;;;4917519;29;20059;-45
2022/03/18 11:18:14;;;;;;;10.00;3.75;;;10.20;94.80;;;;;;4917229;29;20522;-43
2022/03/18 11:20:44;;;;;;;8.18;3.80;;;10.00;94.40;;;;;;4918161;29;20032;-44
2022/03/18 11:23:17;;;;;;;8.45;4.10;;;10.00;94.00;;;;;;4916343;29;20047;-46
2022/03/18 11:25:48;;;;;;;13.70;5.13;;;10.00;93.70;;;;;;4917448;29;20099;-44
2022/03/18 11:28:16;;;;;;;7.55;3.60;;;10.00;93.50;;;;;;4917172;29;20079;-46
2022/03/18 11:30:43;;;;;;;9.35;3.75;;;10.00;93.50;;;;;;4917387;29;20039;-46
2022/03/18 11:33:12;;;;;;;12.32;3.30;;;9.90;93.10;;;;;;4917428;29;20104;-43
2022/03/18 11:35:50;;;;;;;5.60;3.03;;;10.00;91.90;;;;;;4917100;29;20531;-47
2022/03/18 11:38:17;;;;;;;8.65;2.83;;;10.00;91.50;;;;;;4916892;29;20076;-46
2022/03/18 11:40:59;;;;;;;8.38;2.72;;;10.10;91.90;;;;;;4917763;29;20106;-44
2022/03/18 11:43:36;;;;;;;5.15;2.78;;;10.30;90.90;;;;;;4917006;29;20020;-45
2022/03/18 11:46:13;;;;;;;10.57;2.55;;;10.40;89.90;;;;;;4916863;29;20583;-47
2022/03/18 11:48:50;;;;;;;8.38;3.13;;;10.50;89.10;;;;;;4916477;29;20032;-44
2022/03/18 11:51:40;;;;;;;7.82;2.30;;;10.60;87.20;;;;;;4917075;29;20111;-50
2022/03/18 11:54:15;;;;;;;22.50;13.80;;;10.70;86.40;;;;;;4917046;29;20035;-43
2022/03/18 11:56:52;;;;;;;7.60;2.60;;;10.80;86.10;;;;;;4917227;29;20055;-45
2022/03/18 11:59:29;;;;;;;5.88;2.65;;;10.80;83.30;;;;;;4916539;29;20132;-45
2022/03/18 12:01:55;;;;;;;4.25;2.03;;;10.80;82.90;;;;;;4916862;29;20047;-45
2022/03/18 12:04:33;;;;;;;4.93;1.83;;;10.90;83.10;;;;;;4916754;29;20483;-44
2022/03/18 12:07:09;;;;;;;5.13;1.70;;;10.90;82.00;;;;;;4916599;29;20058;-45
2022/03/18 12:09:57;;;;;;;4.75;2.00;;;11.10;80.60;;;;;;4916149;29;20060;-44
2022/03/18 12:12:33;;;;;;;5.57;1.48;;;11.20;78.40;;;;;;4916683;29;20031;-45
2022/03/18 12:15:03;;;;;;;3.30;1.60;;;11.40;78.30;;;;;;4916517;29;20038;-47
2022/03/18 12:17:29;;;;;;;7.25;1.77;;;11.40;76.40;;;;;;4916210;29;20092;-45
2022/03/18 12:19:57;;;;;;;6.97;2.03;;;11.40;73.40;;;;;;4916367;29;20143;-47
2022/03/18 12:22:24;;;;;;;2.65;1.38;;;11.50;74.30;;;;;;4916560;29;20407;-45
2022/03/18 12:24:55;;;;;;;5.50;1.90;;;11.60;73.90;;;;;;4916568;29;20031;-44
2022/03/18 12:27:26;;;;;;;9.73;1.60;;;11.70;73.20;;;;;;4916083;29;20381;-45
2022/03/18 12:30:00;;;;;;;4.50;1.58;;;11.80;72.60;;;;;;4916358;29;20024;-44
2022/03/18 12:32:26;;;;;;;2.10;1.60;;;11.80;70.20;;;;;;4916029;29;20099;-45
2022/03/18 12:34:54;;;;;;;3.50;1.55;;;11.80;69.40;;;;;;4916697;29;20032;-44
2022/03/18 12:37:31;;;;;;;6.47;1.85;;;11.80;69.50;;;;;;4915866;29;20032;-49
2022/03/18 12:40:08;;;;;;;5.47;2.03;;;11.80;68.90;;;;;;4916115;29;20027;-46
2022/03/18 12:42:44;;;;;;;7.80;1.80;;;11.80;70.00;;;;;;4916391;29;20399;-45
2022/03/18 12:45:11;;;;;;;10.95;2.10;;;11.80;69.20;;;;;;4916339;29;20100;-48
2022/03/18 12:47:38;;;;;;;4.35;1.80;;;11.90;70.50;;;;;;4914663;29;20047;-49
2022/03/18 12:50:04;;;;;;;2.63;2.25;;;11.90;69.10;;;;;;4915947;29;20032;-48
2022/03/18 12:52:30;;;;;;;5.63;2.35;;;12.00;69.90;;;;;;4915762;29;20389;-47
2022/03/18 12:55:09;;;;;;;4.78;2.13;;;12.00;69.60;;;;;;4915730;29;20032;-45
2022/03/18 12:57:38;;;;;;;5.93;2.17;;;12.20;70.20;;;;;;4915657;29;20527;-45
2022/03/18 13:00:06;;;;;;;8.40;3.45;;;12.30;68.30;;;;;;4916177;29;20392;-45
2022/03/18 13:02:34;;;;;;;4.90;2.47;;;12.40;71.10;;;;;;4915489;29;20091;-46
2022/03/18 13:05:02;;;;;;;6.35;2.05;;;12.70;66.30;;;;;;4915517;29;20060;-48
2022/03/18 13:07:28;;;;;;;4.32;2.70;;;12.80;65.10;;;;;;4914964;29;20403;-47
2022/03/18 13:09:55;;;;;;;12.70;3.00;;;12.80;67.00;;;;;;4915513;29;20032;-47
2022/03/18 13:12:29;;;;;;;4.07;2.53;;;12.90;66.90;;;;;;4915582;29;20028;-44
2022/03/18 13:14:56;;;;;;;7.05;2.70;;;12.90;66.70;;;;;;4915543;29;20020;-48
2022/03/18 13:17:34;;;;;;;5.30;2.25;;;13.00;69.80;;;;;;4914947;29;20508;-43
2022/03/18 13:19:59;;;;;;;4.85;1.88;;;13.10;71.50;;;;;;4915233;29;20047;-44